Time;durP1;ratioP1;P1;durP2;ratioP2;P2;SDS_P1;SDS_P2;PMS_P1;PMS_P2;Temp;Humidity;BMP_temperature;BMP_pressure;BME280_temperature;BME280_humidity;BME280_pressure;Samples;Min_cycle;Max_cycle;Signal;HPM_P1;HPM_P2
2022/05/17 00:05:00;;;;;;;2.40;2.20;;;;;;;18.92;56.42;96979.94;10202274;29;20060;-89
2022/05/17 00:10:30;;;;;;;2.22;2.03;;;;;;;18.91;56.24;96962.13;10217270;29;20066;-89
2022/05/17 00:16:01;;;;;;;3.10;2.25;;;;;;;18.91;56.14;96964.81;10203477;29;20055;-88
2022/05/17 00:21:29;;;;;;;2.53;2.10;;;;;;;18.88;56.19;96960.84;10188010;29;20510;-88
2022/05/17 00:27:00;;;;;;;2.45;2.03;;;;;;;18.89;56.01;96957.03;10190233;29;20528;-88
2022/05/17 00:32:25;;;;;;;2.75;2.00;;;;;;;18.89;55.86;96948.16;10169740;29;20593;-88
2022/05/17 00:37:52;;;;;;;2.35;2.05;;;;;;;18.89;55.83;96942.75;10164087;29;20063;-89
2022/05/17 00:49:39;;;;;;;2.47;2.00;;;;;;;18.88;55.71;96941.19;10161718;29;20067;-88
2022/05/17 00:55:09;;;;;;;2.40;2.20;;;;;;;18.88;55.70;96941.97;10176740;29;20083;-88
2022/05/17 01:00:45;;;;;;;2.30;2.10;;;;;;;18.89;55.61;96943.53;10160315;29;20055;-88
2022/05/17 01:06:10;;;;;;;2.58;2.00;;;;;;;18.89;55.69;96937.34;10196330;29;20060;-88
2022/05/17 01:11:33;;;;;;;2.05;1.80;;;;;;;18.89;55.51;96937.34;10172184;29;20087;-88
2022/05/17 01:16:54;;;;;;;2.30;2.10;;;;;;;18.88;55.54;96939.25;10171465;29;20114;-88
2022/05/17 01:22:17;;;;;;;2.17;1.98;;;;;;;18.88;55.63;96939.25;10159515;29;20055;-88
2022/05/17 01:27:53;;;;;;;2.20;2.00;;;;;;;18.87;55.44;96937.66;10160337;29;20123;-88
2022/05/17 01:33:15;;;;;;;2.25;2.05;;;;;;;18.88;55.62;96928.47;10187248;29;20491;-88
2022/05/17 01:38:40;;;;;;;3.65;2.20;;;;;;;18.87;55.48;96932.25;10172917;29;20060;-88
2022/05/17 01:44:03;;;;;;;2.00;1.90;;;;;;;18.87;55.32;96937.66;10187650;29;20060;-88
2022/05/17 01:49:27;;;;;;;2.72;1.70;;;;;;;18.88;55.35;96941.19;10172145;29;20068;-88
2022/05/17 01:54:52;;;;;;;2.88;1.90;;;;;;;18.87;55.23;96937.66;10184392;29;20083;-88
2022/05/17 02:00:15;;;;;;;2.10;1.90;;;;;;;18.89;55.37;96940.06;10183731;29;20522;-88
2022/05/17 02:05:39;;;;;;;2.50;1.90;;;;;;;18.87;55.34;96945.75;10175469;29;20056;-88
2022/05/17 02:11:04;;;;;;;1.90;1.70;;;;;;;18.88;55.33;96941.19;10207930;29;20059;-88
2022/05/17 02:16:30;;;;;;;1.80;1.70;;;;;;;18.88;55.17;96935.78;10179987;29;20066;-88
2022/05/17 02:21:54;;;;;;;1.80;1.70;;;;;;;18.88;55.16;96930.38;10178463;29;20118;-88
2022/05/17 02:27:19;;;;;;;1.80;1.70;;;;;;;18.88;55.11;96924.97;10191865;29;20074;-88
2022/05/17 02:32:41;;;;;;;1.95;1.80;;;;;;;18.88;55.19;96917.66;10165024;29;20066;-88
2022/05/17 02:38:09;;;;;;;1.90;1.80;;;;;;;18.88;55.12;96920.38;10195348;29;20130;-88
2022/05/17 02:43:36;;;;;;;2.00;1.80;;;;;;;18.88;55.10;96927.69;10178619;29;20139;-88
2022/05/17 02:49:07;;;;;;;1.90;1.75;;;;;;;18.88;54.85;96917.66;10193154;29;20063;-88
2022/05/17 02:54:30;;;;;;;1.77;1.67;;;;;;;18.87;55.13;96913.38;10175194;29;20416;-88
2022/05/17 02:59:55;;;;;;;1.65;1.55;;;;;;;18.88;55.05;96919.59;10203756;28;20412;-88
2022/05/17 03:05:19;;;;;;;1.88;1.60;;;;;;;18.87;54.86;96920.69;10163737;29;20059;-88
2022/05/17 03:10:44;;;;;;;1.67;1.50;;;;;;;18.89;54.91;96921.16;10189278;29;20126;-88
2022/05/17 03:16:10;;;;;;;1.70;1.60;;;;;;;18.88;54.93;96924.97;10165444;29;20059;-88
2022/05/17 03:21:31;;;;;;;1.67;1.58;;;;;;;18.87;54.93;96926.88;10179151;29;20055;-88
2022/05/17 03:26:54;;;;;;;1.95;1.85;;;;;;;18.87;54.89;96932.25;10192083;29;20522;-88
2022/05/17 03:32:20;;;;;;;1.70;1.60;;;;;;;18.86;54.78;96935.31;10176517;29;20071;-88
2022/05/17 03:37:43;;;;;;;1.70;1.60;;;;;;;18.87;54.74;96944.97;10175802;29;20470;-88
2022/05/17 03:43:05;;;;;;;1.98;1.77;;;;;;;18.87;54.88;96944.97;10171385;29;20154;-88
2022/05/17 03:48:30;;;;;;;1.75;1.65;;;;;;;18.87;54.64;96951.16;10204655;29;20091;-88
2022/05/17 03:53:56;;;;;;;1.52;1.40;;;;;;;18.87;54.79;96947.66;10204760;29;20056;-88
2022/05/17 03:59:17;;;;;;;2.00;1.80;;;;;;;18.86;54.83;96949.59;10174947;29;20064;-88
2022/05/17 04:04:42;;;;;;;1.70;1.60;;;;;;;18.86;54.61;96949.59;10171884;29;20138;-88
2022/05/17 04:10:10;;;;;;;1.88;1.77;;;;;;;18.87;54.77;96955.78;10193650;29;20059;-91
2022/05/17 04:15:46;;;;;;;2.00;1.77;;;;;;;18.87;54.68;96953.06;10332152;28;20061;-52
2022/05/17 04:21:06;;;;;;;2.08;1.88;;;;;;;18.86;54.99;96954.97;10342724;28;20062;-52
2022/05/17 04:26:26;;;;;;;1.88;1.65;;;;;;;18.88;54.92;96951.97;10352601;28;20058;-53
2022/05/17 04:31:46;;;;;;;1.70;1.60;;;;;;;18.87;55.12;96958.47;10334635;28;20058;-52
2022/05/17 04:37:06;;;;;;;1.75;1.65;;;;;;;18.87;55.15;96955.78;10327951;28;20058;-49
2022/05/17 04:42:27;;;;;;;1.70;1.60;;;;;;;18.89;55.38;96970.53;10359442;28;20057;-51
2022/05/17 04:47:47;;;;;;;1.55;1.45;;;;;;;18.89;55.41;96965.13;10340858;28;20052;-51
2022/05/17 04:53:06;;;;;;;3.72;2.58;;;;;;;18.90;56.19;96976.75;10334891;28;20058;-53
2022/05/17 04:58:25;;;;;;;4.97;3.20;;;;;;;18.86;58.17;96981.19;10289910;28;20638;-50
2022/05/17 05:03:45;;;;;;;4.25;2.92;;;;;;;18.82;59.22;96985.59;10280479;28;20066;-53
2022/05/17 05:09:04;;;;;;;3.80;2.85;;;;;;;18.80;59.12;96988.63;10288681;28;20065;-52
2022/05/17 05:14:24;;;;;;;3.80;3.08;;;;;;;18.80;59.19;96993.22;10289622;28;20051;-53
2022/05/17 05:19:44;;;;;;;3.90;2.90;;;;;;;18.78;59.18;96994.31;10280557;28;20656;-51
2022/05/17 05:25:04;;;;;;;3.55;3.03;;;;;;;18.78;59.34;96993.53;10288054;28;20493;-53
2022/05/17 05:30:23;;;;;;;6.20;2.92;;;;;;;18.80;59.45;97004.00;10299525;28;20053;-53
2022/05/17 05:35:44;;;;;;;4.07;3.30;;;;;;;18.78;59.79;96999.72;10274233;28;20411;-53
2022/05/17 05:41:04;;;;;;;5.07;3.30;;;;;;;18.78;59.97;96997.00;10296946;28;20055;-51
2022/05/17 05:46:23;;;;;;;5.38;3.08;;;;;;;18.77;60.20;97000.81;10302869;28;20086;-53
2022/05/17 05:51:43;;;;;;;3.58;3.00;;;;;;;18.76;60.15;97001.94;10299452;28;20062;-50
2022/05/17 05:57:03;;;;;;;4.68;3.88;;;;;;;18.76;60.54;97010.03;10296326;28;20493;-51
2022/05/17 06:02:22;;;;;;;7.68;4.03;;;;;;;18.74;60.82;97008.75;10288074;28;20414;-51
2022/05/17 06:07:42;;;;;;;5.05;4.25;;;;;;;18.74;61.21;97017.66;10268676;28;20513;-53
2022/05/17 06:13:01;;;;;;;5.60;4.32;;;;;;;18.71;61.83;97012.84;10277890;28;20054;-52
2022/05/17 06:18:23;;;;;;;7.57;4.70;;;;;;;18.70;61.77;97016.69;10298533;28;20057;-53
2022/05/17 06:23:42;;;;;;;6.35;5.63;;;;;;;18.68;61.90;97016.19;10303310;28;20498;-50
2022/05/17 06:29:02;;;;;;;7.20;6.00;;;;;;;18.68;61.97;97013.50;10311152;28;20055;-53
2022/05/17 06:34:22;;;;;;;6.70;5.85;;;;;;;18.67;62.49;97011.91;10298119;28;20051;-52
2022/05/17 06:39:42;;;;;;;7.32;6.38;;;;;;;18.67;62.05;97009.19;10296963;28;20764;-52
2022/05/17 06:45:02;;;;;;;7.90;6.32;;;;;;;18.67;62.42;97013.81;10310492;28;20069;-54
2022/05/17 06:50:22;;;;;;;10.13;6.75;;;;;;;18.67;62.75;97021.91;10321408;28;20413;-53
2022/05/17 06:55:41;;;;;;;7.15;6.40;;;;;;;18.67;62.19;97020.00;10296965;28;20487;-53
2022/05/17 07:01:01;;;;;;;6.45;5.85;;;;;;;18.68;62.00;97029.69;10282673;28;20059;-52
2022/05/17 07:06:20;;;;;;;9.23;5.90;;;;;;;18.69;61.70;97022.38;10293895;28;20121;-53
2022/05/17 07:17:20;;;;;;;6.87;5.33;;;;;;;18.69;61.43;97025.88;10294125;28;20445;-53
2022/05/17 07:22:40;;;;;;;5.40;4.90;;;;;;;18.69;61.23;97036.66;10294536;28;20058;-54
2022/05/17 07:28:00;;;;;;;5.80;4.90;;;;;;;18.69;60.91;97033.19;10295269;28;20413;-52
2022/05/17 07:33:20;;;;;;;6.03;4.72;;;;;;;18.69;60.94;97036.66;10275450;28;20055;-53
2022/05/17 07:38:40;;;;;;;7.07;5.05;;;;;;;18.69;61.14;97036.66;10306371;28;20591;-51
2022/05/17 07:44:02;;;;;;;5.93;4.63;;;;;;;18.70;61.14;97040.16;10275579;28;20051;-52
2022/05/17 07:49:22;;;;;;;5.93;4.65;;;;;;;18.70;61.33;97043.66;10320430;28;20058;-51
2022/05/17 07:54:43;;;;;;;4.95;4.50;;;;;;;18.70;60.97;97050.94;10297433;28;20578;-51
2022/05/17 08:00:05;;;;;;;7.35;6.65;;;;;;;18.70;61.76;97042.84;10291817;28;20071;-54
2022/05/17 08:05:31;;;;;;;7.37;5.80;;;;;;;18.68;61.29;97045.88;10270422;28;20063;-53
2022/05/17 08:10:53;;;;;;;6.82;6.22;;;;;;;18.69;61.42;97052.06;10298484;28;20313;-53
2022/05/17 08:16:12;;;;;;;6.53;5.95;;;;;;;18.68;61.11;97047.75;10306203;28;20059;-52
2022/05/17 08:21:31;;;;;;;6.45;5.95;;;;;;;18.69;61.29;97055.56;10304193;28;20062;-52
2022/05/17 08:38:08;;;;;;;6.43;5.55;;;;;;;18.69;61.32;97063.66;10288038;28;20058;-53
2022/05/17 08:43:46;;;;;;;5.22;4.82;;;;;;;18.69;61.16;97063.66;10281356;28;20050;-53
2022/05/17 08:49:22;;;;;;;5.25;4.85;;;;;;;18.71;61.58;97060.66;10315108;28;20086;-52
2022/05/17 08:54:55;;;;;;;5.10;4.32;;;;;;;18.73;61.42;97063.81;10270277;28;20057;-53
2022/05/17 09:00:23;;;;;;;4.18;3.88;;;;;;;18.73;61.12;97061.91;10289870;28;20051;-52
2022/05/17 09:05:46;;;;;;;;;;;;;;;18.74;61.46;97068.13;10289712;28;20165;-50
2022/05/17 09:11:23;;;;;;;5.97;4.40;;;;;;;18.72;61.02;97081.94;10276631;28;19926;-53
2022/05/17 09:16:47;;;;;;;5.18;3.88;;;;;;;18.72;60.61;97081.16;10288462;28;20078;-52
2022/05/17 09:22:07;;;;;;;4.18;3.83;;;;;;;18.72;60.44;97084.63;10291642;28;20512;-50
2022/05/17 09:27:37;;;;;;;4.00;3.60;;;;;;;18.72;60.13;97092.72;10287362;28;20061;-53
2022/05/17 09:33:03;;;;;;;3.70;3.40;;;;;;;18.73;60.42;97085.41;10291503;28;20062;-53
2022/05/17 09:38:24;;;;;;;4.13;3.72;;;;;;;18.73;60.34;97091.59;10290181;28;20059;-53
2022/05/17 09:43:50;;;;;;;4.18;3.78;;;;;;;18.73;60.35;97082.72;10297787;28;20555;-53
2022/05/17 09:55:21;;;;;;;9.75;6.18;;;;;;;18.73;59.90;97104.31;10276100;28;20062;-53
2022/05/17 10:00:45;;;;;;;8.38;5.50;;;;;;;18.72;59.89;97103.53;10281089;28;20055;-52
2022/05/17 10:06:08;;;;;;;9.57;5.30;;;;;;;18.73;59.78;97109.72;10284982;28;20058;-53
2022/05/17 10:11:39;;;;;;;8.55;5.05;;;;;;;18.73;59.88;97113.19;10271686;28;20098;-51
2022/05/17 10:17:20;;;;;;;6.10;5.00;;;;;;;18.74;59.85;97114.81;10285744;28;20090;-53
2022/05/17 10:23:08;;;;;;;5.22;4.60;;;;;;;18.75;60.56;97121.78;10289692;28;20481;-53
2022/05/17 10:28:40;;;;;;;5.18;4.35;;;;;;;18.75;60.34;97124.47;10290921;28;20090;-52
2022/05/17 10:34:30;;;;;;;5.68;3.95;;;;;;;18.76;60.27;97131.47;10281864;28;20114;-50
2022/05/17 10:39:58;;;;;;;4.63;4.03;;;;;;;18.75;60.14;97129.88;10280900;28;20062;-52
2022/05/17 10:45:32;;;;;;;5.18;3.80;;;;;;;18.74;59.95;97141.78;10310681;28;20061;-52
2022/05/17 10:51:01;;;;;;;5.28;4.47;;;;;;;18.75;59.75;97147.97;10304700;28;20051;-53
2022/05/17 10:56:40;;;;;;;4.85;4.32;;;;;;;18.75;59.61;97137.97;10278640;28;20067;-52
2022/05/17 11:02:11;;;;;;;;;;;;;;;18.73;59.13;97144.78;10243037;29;20450;-52
2022/05/17 11:07:37;;;;;;;4.35;3.63;;;;;;;18.74;58.96;97155.28;10275659;28;19988;-51
2022/05/17 11:13:13;;;;;;;4.28;3.55;;;;;;;18.73;58.79;97147.50;10292452;28;20043;-53
2022/05/17 11:18:42;;;;;;;5.43;3.30;;;;;;;18.74;58.92;97154.50;10292558;28;20514;-50
2022/05/17 11:24:08;;;;;;;3.88;3.28;;;;;;;18.76;58.98;97169.25;10256979;28;20065;-52
2022/05/17 11:29:40;;;;;;;3.83;3.13;;;;;;;18.75;58.78;97170.34;10256664;28;20058;-49
2022/05/17 11:35:03;;;;;;;3.40;3.10;;;;;;;18.77;58.82;97183.56;10286898;28;20063;-53
2022/05/17 11:40:47;;;;;;;4.60;3.40;;;;;;;18.75;58.76;97191.94;10278220;28;20489;-51
2022/05/17 11:46:25;;;;;;;5.35;3.05;;;;;;;18.76;58.60;97181.97;10285847;28;20066;-52
2022/05/17 11:51:59;;;;;;;4.75;3.05;;;;;;;18.75;58.34;97188.47;10243544;28;20055;-50
2022/05/17 11:57:18;;;;;;;3.45;3.00;;;;;;;18.73;58.24;97194.16;10270268;28;20114;-50
2022/05/17 12:02:44;;;;;;;3.17;2.97;;;;;;;18.73;58.20;97187.97;10297249;28;20102;-52
2022/05/17 12:08:32;;;;;;;4.30;3.30;;;;;;;18.72;58.04;97195.28;10284936;28;20094;-51
2022/05/17 12:14:20;;;;;;;3.92;3.30;;;;;;;18.72;58.03;97203.38;10294125;28;20063;-51
2022/05/17 12:19:47;;;;;;;3.72;3.33;;;;;;;18.73;57.99;97190.66;10291314;28;20506;-52
2022/05/17 12:25:07;;;;;;;4.00;3.60;;;;;;;18.74;58.51;97190.38;10277400;28;20063;-52
2022/05/17 12:36:20;;;;;;;5.07;3.72;;;;;;;18.76;58.31;97198.94;10286591;28;20449;-53
2022/05/17 12:47:48;;;;;;;4.53;3.80;;;;;;;18.76;58.14;97200.88;10302066;28;20047;-53
2022/05/17 12:53:17;;;;;;;3.50;3.20;;;;;;;18.78;58.13;97206.75;10292141;28;20464;-51
2022/05/17 12:58:48;;;;;;;3.72;3.42;;;;;;;18.80;58.49;97211.84;10281386;28;20055;-52
2022/05/17 13:04:10;;;;;;;3.97;3.53;;;;;;;18.83;58.61;97230.94;10288742;28;20509;-52
2022/05/17 13:09:30;;;;;;;4.18;3.78;;;;;;;18.83;58.28;97247.13;10284508;28;20055;-52
2022/05/17 13:14:50;;;;;;;3.78;3.45;;;;;;;18.83;58.12;97240.94;10293058;28;20051;-50
2022/05/17 13:20:14;;;;;;;3.47;3.17;;;;;;;18.81;58.16;97248.53;10287703;28;20185;-52
2022/05/17 13:25:37;;;;;;;3.50;3.20;;;;;;;18.81;57.74;97251.25;10304317;28;20501;-53
2022/05/17 13:31:20;;;;;;;3.88;3.40;;;;;;;18.80;57.74;97245.06;10291056;28;20061;-52
2022/05/17 13:36:41;;;;;;;3.38;3.08;;;;;;;18.80;57.75;97241.53;10274431;28;20055;-51
2022/05/17 13:42:00;;;;;;;4.10;3.15;;;;;;;18.81;57.93;97232.34;10251425;29;20109;-51
2022/05/17 13:47:24;;;;;;;3.20;2.90;;;;;;;18.84;57.81;97235.22;10266363;28;20548;-53
2022/05/17 13:52:46;;;;;;;3.88;3.58;;;;;;;18.86;57.94;97243.03;10298510;28;20047;-51
2022/05/17 13:58:09;;;;;;;3.45;3.15;;;;;;;18.87;57.79;97228.41;10288203;28;20063;-52
2022/05/17 14:03:28;;;;;;;3.72;3.28;;;;;;;18.89;57.66;97226.19;10280512;28;20073;-53
2022/05/17 14:14:38;;;;;;;4.03;3.63;;;;;;;18.90;57.36;97231.28;10295738;28;20414;-51
2022/05/17 14:19:59;;;;;;;3.70;3.40;;;;;;;18.92;57.52;97226.38;10309769;28;20051;-52
2022/05/17 14:25:19;;;;;;;4.03;3.45;;;;;;;18.98;57.36;97226.25;10296596;28;20062;-52
2022/05/17 14:30:39;;;;;;;3.78;3.40;;;;;;;19.01;57.24;97237.22;10307216;28;20054;-52
2022/05/17 14:35:58;;;;;;;3.97;3.60;;;;;;;19.02;57.25;97238.03;10280050;28;20071;-53
2022/05/17 14:41:18;;;;;;;4.10;3.70;;;;;;;18.99;57.15;97242.13;10295938;28;20055;-52
2022/05/17 14:46:38;;;;;;;4.75;3.55;;;;;;;18.95;56.97;97238.47;10292991;28;20050;-52
2022/05/17 14:51:58;;;;;;;4.70;3.40;;;;;;;18.93;57.08;97246.88;10288253;28;20055;-52
2022/05/17 14:57:20;;;;;;;3.72;3.42;;;;;;;18.93;57.04;97236.09;10318637;28;20058;-51
2022/05/17 15:03:04;;;;;;;4.25;3.85;;;;;;;18.99;56.86;97238.63;10347456;28;20054;-52
2022/05/17 15:08:23;;;;;;;3.90;3.60;;;;;;;19.01;56.32;97245.31;10295372;28;20054;-53
2022/05/17 15:13:43;;;;;;;3.67;3.10;;;;;;;18.99;56.25;97244.84;10307096;28;20066;-51
2022/05/17 15:19:03;;;;;;;4.60;3.88;;;;;;;18.98;56.41;97239.75;10293995;28;20065;-63
2022/05/17 15:24:22;;;;;;;5.63;3.78;;;;;;;18.98;56.43;97245.94;10293585;28;20050;-55
2022/05/17 15:29:42;;;;;;;5.38;4.22;;;;;;;18.99;56.33;97250.22;10312163;28;20046;-60
2022/05/17 15:35:04;;;;;;;6.22;4.18;;;;;;;19.01;55.99;97247.22;10293104;28;20110;-60
2022/05/17 15:40:25;;;;;;;8.15;4.00;;;;;;;19.03;56.21;97258.50;10297119;28;20069;-52
2022/05/17 15:45:44;;;;;;;7.78;3.95;;;;;;;19.00;56.41;97257.25;10288843;28;20106;-53
2022/05/17 15:56:45;;;;;;;5.32;3.70;;;;;;;18.95;56.30;97258.19;10288501;28;20055;-51
2022/05/17 16:02:05;;;;;;;5.75;3.40;;;;;;;18.96;56.31;97261.66;10286948;28;20055;-52
2022/05/17 16:13:09;;;;;;;4.78;3.80;;;;;;;18.96;56.25;97256.25;10291200;28;20414;-53
2022/05/17 16:18:29;;;;;;;4.55;3.65;;;;;;;18.96;56.19;97256.25;10291778;28;20109;-50
2022/05/17 16:23:49;;;;;;;6.13;5.38;;;;;;;18.97;56.03;97257.84;10289780;28;20445;-54
2022/05/17 16:29:09;;;;;;;6.07;5.35;;;;;;;18.96;55.79;97254.34;10289896;28;20062;-52
2022/05/17 16:34:30;;;;;;;6.78;5.38;;;;;;;18.97;55.52;97263.25;10307682;28;20047;-51
2022/05/17 16:39:49;;;;;;;8.68;5.50;;;;;;;18.93;55.57;97263.09;10286708;28;20114;-52
2022/05/17 16:45:09;;;;;;;6.95;4.97;;;;;;;18.92;55.52;97264.19;10303534;28;20505;-53
2022/05/17 16:50:28;;;;;;;8.80;4.80;;;;;;;18.92;55.78;97261.47;10286058;28;20118;-53
2022/05/17 16:55:47;;;;;;;5.35;4.85;;;;;;;18.91;55.79;97264.47;10304148;28;20050;-53
2022/05/17 17:01:09;;;;;;;5.70;4.57;;;;;;;18.91;55.77;97259.88;10327750;28;20065;-53
2022/05/17 17:06:33;;;;;;;5.57;4.70;;;;;;;18.92;55.78;97271.50;10279128;28;20598;-54
2022/05/17 17:11:52;;;;;;;5.85;5.13;;;;;;;18.91;55.55;97275.28;10262648;28;20504;-51
2022/05/17 17:17:14;;;;;;;6.53;4.85;;;;;;;18.90;55.59;97281.81;10336301;28;20121;-52
2022/05/17 17:22:34;;;;;;;7.82;4.85;;;;;;;18.87;55.56;97282.41;10279149;28;20061;-54
2022/05/17 17:27:56;;;;;;;6.72;5.18;;;;;;;18.85;55.38;97271.13;10288748;28;20066;-53
2022/05/17 17:38:54;;;;;;;8.13;4.55;;;;;;;18.81;55.63;97283.63;10289313;28;20509;-53
2022/05/17 17:44:14;;;;;;;9.50;4.85;;;;;;;18.79;55.63;97292.00;10297770;28;20055;-53
2022/05/17 17:49:36;;;;;;;6.90;4.53;;;;;;;18.77;55.73;97296.91;10286298;28;20059;-53
2022/05/17 17:54:55;;;;;;;5.80;4.05;;;;;;;18.75;56.02;97299.13;10313423;28;20063;-53
2022/05/17 18:00:15;;;;;;;7.03;4.55;;;;;;;18.73;56.38;97301.31;10299049;28;20051;-53
2022/05/17 18:05:38;;;;;;;5.22;4.28;;;;;;;18.71;56.11;97309.72;10299390;28;20102;-53
2022/05/17 18:10:59;;;;;;;7.43;4.32;;;;;;;18.69;56.08;97316.53;10290094;28;20047;-51
2022/05/17 18:16:29;;;;;;;7.35;4.22;;;;;;;18.65;55.86;97326.34;10283247;28;20390;-52
2022/05/17 18:21:49;;;;;;;4.30;3.90;;;;;;;18.60;56.04;97329.94;10276067;28;20053;-52
2022/05/17 18:27:09;;;;;;;5.35;4.15;;;;;;;18.58;55.92;97337.56;10313853;28;20062;-53
2022/05/17 18:32:34;;;;;;;6.32;4.10;;;;;;;18.59;55.86;97333.75;10278867;28;20074;-53
2022/05/17 18:37:54;;;;;;;4.90;4.13;;;;;;;18.62;56.12;97337.75;10280325;28;20731;-52
2022/05/17 18:43:17;;;;;;;6.15;4.00;;;;;;;18.63;56.15;97353.63;10289518;28;20114;-48
2022/05/17 18:48:37;;;;;;;4.78;3.80;;;;;;;18.63;56.16;97361.72;10287344;28;20081;-51
2022/05/17 18:53:58;;;;;;;4.68;4.15;;;;;;;18.64;56.32;97357.94;10305175;28;20051;-48
2022/05/17 18:59:20;;;;;;;4.20;3.78;;;;;;;18.65;56.37;97364.94;10295533;28;20066;-52
2022/05/17 19:04:40;;;;;;;4.15;3.75;;;;;;;18.65;56.38;97364.94;10290060;28;20414;-50
2022/05/17 19:15:38;;;;;;;5.43;3.75;;;;;;;18.68;56.44;97374.31;10290764;28;20058;-52
2022/05/17 19:20:57;;;;;;;6.45;3.67;;;;;;;18.69;56.85;97381.31;10304189;28;20066;-51
2022/05/17 19:26:17;;;;;;;4.20;3.80;;;;;;;18.70;57.03;97399.09;10276670;28;20522;-50
2022/05/17 19:31:42;;;;;;;5.95;3.70;;;;;;;18.71;57.41;97406.88;10309244;28;20109;-53
2022/05/17 19:42:43;;;;;;;6.60;3.85;;;;;;;18.71;57.48;97416.88;10288605;28;20553;-53
2022/05/17 19:48:14;;;;;;;4.15;3.55;;;;;;;18.71;57.44;97419.59;10300841;28;20514;-52
2022/05/17 19:53:34;;;;;;;4.90;3.33;;;;;;;18.71;57.72;97423.09;10290605;28;20225;-50
2022/05/17 19:58:54;;;;;;;4.93;4.05;;;;;;;18.71;57.65;97423.09;10290509;28;20078;-51
2022/05/17 20:04:13;;;;;;;4.25;3.83;;;;;;;18.72;57.69;97440.09;10308340;28;20058;-54
2022/05/17 20:09:36;;;;;;;5.25;3.90;;;;;;;18.72;57.74;97440.88;10291361;28;20061;-53
2022/05/17 20:14:56;;;;;;;4.75;4.35;;;;;;;18.72;57.88;97435.50;10293697;28;20067;-53
2022/05/17 20:20:19;;;;;;;6.50;4.40;;;;;;;18.72;57.94;97446.28;10298489;28;20141;-50
2022/05/17 20:25:40;;;;;;;4.68;4.28;;;;;;;18.71;58.06;97439.28;10289854;28;20058;-52
2022/05/17 20:31:00;;;;;;;5.30;4.32;;;;;;;18.72;58.10;97440.88;10302891;28;20059;-53
2022/05/17 20:36:20;;;;;;;7.13;4.65;;;;;;;18.72;58.17;97429.31;10291395;28;20446;-53
2022/05/17 20:41:39;;;;;;;4.97;4.47;;;;;;;18.72;58.17;97430.09;10302595;28;20055;-52
2022/05/17 20:52:37;;;;;;;5.10;4.70;;;;;;;18.72;58.16;97435.50;10292128;28;20062;-51
2022/05/17 20:57:56;;;;;;;5.18;4.65;;;;;;;18.72;58.16;97440.88;10303686;28;20073;-51
2022/05/17 21:03:16;;;;;;;4.80;4.40;;;;;;;18.73;58.33;97445.16;10305651;28;20066;-51
2022/05/17 21:08:36;;;;;;;4.90;4.47;;;;;;;18.73;58.35;97447.88;10302494;28;20535;-53
2022/05/17 21:13:55;;;;;;;4.97;4.57;;;;;;;18.72;58.35;97443.59;10289012;28;20151;-53
2022/05/17 21:19:29;;;;;;;4.55;4.20;;;;;;;18.73;58.59;97441.69;10290004;28;20065;-53
2022/05/17 21:24:49;;;;;;;4.55;4.15;;;;;;;18.73;58.52;97439.78;10300102;28;20058;-51
2022/05/17 21:30:27;;;;;;;4.25;3.85;;;;;;;18.73;58.65;97439.78;10291271;28;20058;-53
2022/05/17 21:35:47;;;;;;;5.30;4.80;;;;;;;18.73;58.55;97441.69;10288926;28;20059;-53
2022/05/17 21:41:07;;;;;;;4.80;4.10;;;;;;;18.73;58.67;97453.25;10273626;28;20067;-53
2022/05/17 21:46:27;;;;;;;4.50;4.10;;;;;;;18.73;58.60;97460.56;10298354;28;20077;-53
2022/05/17 21:51:47;;;;;;;4.47;4.00;;;;;;;18.73;58.63;97457.88;10295786;28;20059;-53
2022/05/17 21:57:07;;;;;;;4.32;3.92;;;;;;;18.74;58.67;97467.59;10289703;28;20561;-52
2022/05/17 22:02:26;;;;;;;4.18;3.78;;;;;;;18.73;58.83;97466.75;10286165;28;20540;-51
2022/05/17 22:07:46;;;;;;;4.53;4.05;;;;;;;18.72;58.79;97467.88;10288432;28;20050;-50
2022/05/17 22:18:45;;;;;;;4.40;4.03;;;;;;;18.72;58.73;97469.78;10302140;28;20054;-53
2022/05/17 22:24:05;;;;;;;4.07;3.70;;;;;;;18.73;58.74;97482.94;10304419;28;20055;-53
2022/05/17 22:29:25;;;;;;;4.47;4.07;;;;;;;18.72;58.94;97480.59;10298235;28;20465;-53
2022/05/17 22:34:45;;;;;;;4.50;4.10;;;;;;;18.72;58.85;97486.78;10309405;28;20062;-53
2022/05/17 22:40:06;;;;;;;4.13;3.72;;;;;;;18.72;58.82;97492.16;10306734;28;20108;-53
2022/05/17 22:51:04;;;;;;;4.47;4.07;;;;;;;18.72;58.79;97485.97;10306803;28;20547;-52
2022/05/17 22:56:29;;;;;;;4.38;3.97;;;;;;;18.72;58.82;97500.25;10295675;28;20059;-53
2022/05/17 23:01:48;;;;;;;4.35;3.95;;;;;;;18.71;58.79;97501.34;10294328;28;20163;-53
2022/05/17 23:07:08;;;;;;;4.70;4.20;;;;;;;18.72;58.72;97505.66;10293902;28;20055;-53
2022/05/17 23:12:27;;;;;;;4.20;3.80;;;;;;;18.71;58.73;97508.66;10293601;28;20142;-52
2022/05/17 23:17:47;;;;;;;4.40;4.00;;;;;;;18.71;58.55;97501.34;10295695;28;20063;-53
2022/05/17 23:23:06;;;;;;;4.50;4.10;;;;;;;18.71;58.67;97498.66;10306829;28;20067;-53
2022/05/17 23:28:31;;;;;;;4.10;3.80;;;;;;;18.72;58.74;97499.47;10293302;28;20062;-53
2022/05/17 23:33:53;;;;;;;4.45;4.05;;;;;;;18.70;58.79;97507.88;10295442;28;20062;-51
2022/05/17 23:39:15;;;;;;;5.45;3.90;;;;;;;18.71;58.74;97501.34;10295549;28;20569;-53
2022/05/17 23:44:35;;;;;;;4.55;4.15;;;;;;;18.71;58.58;97514.84;10312382;28;20114;-53
2022/05/17 23:49:55;;;;;;;3.90;3.60;;;;;;;18.71;58.56;97519.44;10292276;28;20073;-53
2022/05/17 23:55:15;;;;;;;4.47;3.70;;;;;;;18.71;58.63;97516.75;10299549;28;20066;-53
